< < Back
Terminal Aerodrome Forecast


Current Version              Previous Versions:   1  2  3  4  5  6  7  8  9  

Terminal Aerodrome Forecast

109
FTUS42 KFFC 300521
TAFMCN
TAF
KMCN 300521Z 3006/3106 VRB03KT P6SM VCSH FEW040 SCT100
      TEMPO 3007/3009 4SM -SHRA BKN040
     FM301400 03006KT P6SM SCT040 SCT120
     FM301700 34007KT P6SM VCSH BKN050 PROB30 3018/3023 6SM -TSRA
      BKN040CB
     FM310100 VRB04KT P6SM SCT060 SCT250=

Latest METAR

555
SAUS80 KWBC 301200
MTRMCN
METAR KMCN 301153Z 26003KT 5SM FU CLR 24/23 A2995 RMK AO2 SLP137
T02440233 10256 20233 53008


USA.gov is the U.S. government's official web portal to all federal, state and local government web resources and services.